createdAt,value
2023-07-22T00:03:08.106Z,18.59
2023-07-22T00:09:10.578Z,18.59
2023-07-22T00:15:05.604Z,18.59
2023-07-22T00:20:32.462Z,18.61
2023-07-22T00:27:22.204Z,18.57
2023-07-22T00:34:00.013Z,18.46
2023-07-22T00:40:34.916Z,18.35
2023-07-22T00:46:02.932Z,18.24
2023-07-22T00:52:12.182Z,18.17
2023-07-22T00:58:36.088Z,18.03
2023-07-22T01:04:32.026Z,17.94
2023-07-22T01:10:40.821Z,17.76
2023-07-22T01:16:56.714Z,17.62
2023-07-22T01:23:05.712Z,17.50
2023-07-22T01:28:42.532Z,17.38
2023-07-22T01:34:31.098Z,17.32
2023-07-22T01:40:47.840Z,17.32
2023-07-22T01:47:04.060Z,17.35
2023-07-22T01:53:57.425Z,17.39
2023-07-22T01:59:56.611Z,17.41
2023-07-22T02:06:25.261Z,17.38
2023-07-22T02:13:14.099Z,17.34
2023-07-22T02:19:42.023Z,17.26
2023-07-22T02:26:00.965Z,17.17
2023-07-22T02:32:46.720Z,17.16
2023-07-22T02:38:41.599Z,17.15
2023-07-22T02:45:17.409Z,17.18
2023-07-22T02:51:21.943Z,17.20
2023-07-22T02:57:33.780Z,17.20
2023-07-22T03:04:18.571Z,17.18
2023-07-22T03:10:22.008Z,17.25
2023-07-22T03:16:05.744Z,17.29
2023-07-22T03:21:58.454Z,17.35
2023-07-22T03:28:21.499Z,17.38
2023-07-22T03:34:04.991Z,17.44
2023-07-22T03:40:19.110Z,17.46
2023-07-22T03:45:49.173Z,17.47
2023-07-22T03:51:19.958Z,17.47
2023-07-22T03:57:03.852Z,17.45
2023-07-22T04:03:09.994Z,17.50
2023-07-22T04:09:09.013Z,17.54
2023-07-22T04:15:19.521Z,17.59
2023-07-22T04:21:55.100Z,17.74
2023-07-22T04:28:47.159Z,17.78
2023-07-22T04:35:23.868Z,17.84
2023-07-22T04:41:15.297Z,17.86
2023-07-22T04:48:08.948Z,17.92
2023-07-22T04:54:35.045Z,18.01
2023-07-22T05:00:53.631Z,18.08
2023-07-22T05:06:37.885Z,18.20
2023-07-22T05:13:05.448Z,18.34
2023-07-22T05:18:46.118Z,18.42
2023-07-22T05:24:24.915Z,18.58
2023-07-22T05:30:34.236Z,18.77
2023-07-22T05:35:48.959Z,18.97
2023-07-22T05:40:57.694Z,19.12
2023-07-22T05:46:00.379Z,19.11
2023-07-22T05:51:50.841Z,19.12
2023-07-22T05:57:01.312Z,19.16
2023-07-22T06:03:16.677Z,19.27
2023-07-22T06:08:21.663Z,19.54
2023-07-22T06:14:20.442Z,19.89
2023-07-22T06:19:56.504Z,19.89
2023-07-22T06:26:00.658Z,19.78
2023-07-22T06:31:52.649Z,19.74
2023-07-22T06:37:41.495Z,19.65
2023-07-22T06:43:47.355Z,19.66
2023-07-22T06:50:02.330Z,19.72
2023-07-22T06:55:55.231Z,19.90
2023-07-22T07:01:19.903Z,20.02
2023-07-22T07:07:13.708Z,20.05
2023-07-22T07:13:43.039Z,20.05
2023-07-22T07:20:01.800Z,20.21
2023-07-22T07:26:12.191Z,20.37
2023-07-22T07:32:02.787Z,20.58
2023-07-22T07:37:42.678Z,20.89
2023-07-22T07:44:03.782Z,21.21
2023-07-22T07:49:51.645Z,21.59
2023-07-22T07:56:05.669Z,21.92
2023-07-22T08:02:11.360Z,21.90
2023-07-22T08:08:42.826Z,21.55
2023-07-22T08:15:06.050Z,21.63
2023-07-22T08:21:38.835Z,21.85
2023-07-22T08:27:51.109Z,22.02
2023-07-22T08:33:48.236Z,22.30
2023-07-22T08:40:00.734Z,22.63
2023-07-22T08:45:58.910Z,22.80
2023-07-22T08:51:38.359Z,22.95
2023-07-22T08:57:31.199Z,22.65
2023-07-22T09:02:41.333Z,22.27
2023-07-22T09:08:28.547Z,22.33
2023-07-22T09:13:38.250Z,22.65
2023-07-22T09:19:05.947Z,22.93
2023-07-22T09:24:30.718Z,23.15
2023-07-22T09:29:51.246Z,23.55
2023-07-22T09:35:53.012Z,23.85
2023-07-22T09:40:55.408Z,23.79
2023-07-22T09:46:34.377Z,23.58
2023-07-22T09:52:03.166Z,23.82
2023-07-22T09:57:23.772Z,24.34
2023-07-22T10:03:03.369Z,24.81
2023-07-22T10:34:55.794Z,24.48
2023-07-22T10:40:31.448Z,24.55
2023-07-22T10:45:40.520Z,24.81
2023-07-22T10:50:52.933Z,24.96
2023-07-22T10:56:07.836Z,25.19
2023-07-22T11:01:28.151Z,25.29
2023-07-22T11:06:33.693Z,25.42
2023-07-22T11:12:16.815Z,25.37
2023-07-22T11:17:30.943Z,25.19
2023-07-22T11:22:53.472Z,25.11
2023-07-22T11:27:58.900Z,25.02
2023-07-22T11:33:01.549Z,25.02
2023-07-22T11:38:13.023Z,24.97
2023-07-22T11:43:20.935Z,24.92
2023-07-22T11:48:23.695Z,24.98
2023-07-22T11:53:28.907Z,25.05
2023-07-22T11:58:41.530Z,25.04
2023-07-22T12:04:11.204Z,24.99
2023-07-22T12:09:24.751Z,24.83
2023-07-22T12:14:43.593Z,24.89
2023-07-22T12:20:13.537Z,25.26
2023-07-22T12:25:47.252Z,25.87
2023-07-22T12:30:58.692Z,25.99
2023-07-22T12:36:26.513Z,25.82
2023-07-22T12:42:03.472Z,25.54
2023-07-22T12:47:13.556Z,25.13
2023-07-22T12:52:39.278Z,24.84
2023-07-22T12:58:15.311Z,24.61
2023-07-22T13:03:38.732Z,24.57
2023-07-22T13:09:13.811Z,24.82
2023-07-22T13:14:32.695Z,25.21
2023-07-22T13:19:37.898Z,25.64
2023-07-22T13:24:55.259Z,25.78
2023-07-22T13:29:58.563Z,25.67
2023-07-22T13:35:00.827Z,25.50
2023-07-22T13:40:23.249Z,25.33
2023-07-22T13:45:36.961Z,25.30
2023-07-22T13:51:12.323Z,25.51
2023-07-22T13:56:19.707Z,25.99
2023-07-22T14:01:27.356Z,26.14
2023-07-22T14:06:37.730Z,26.04
2023-07-22T14:11:54.692Z,26.10
2023-07-22T14:17:08.950Z,26.25
2023-07-22T14:22:13.744Z,26.10
2023-07-22T14:27:27.021Z,25.98
2023-07-22T14:32:44.273Z,25.76
2023-07-22T14:37:50.041Z,25.81
2023-07-22T14:43:15.981Z,25.86
2023-07-22T14:48:18.603Z,25.96
2023-07-22T14:53:44.150Z,25.99
2023-07-22T14:59:17.948Z,25.96
2023-07-22T15:04:49.635Z,25.89
2023-07-22T15:10:39.503Z,25.87
2023-07-22T15:16:00.475Z,25.68
2023-07-22T15:21:05.615Z,25.62
2023-07-22T15:26:10.760Z,25.67
2023-07-22T15:31:13.431Z,25.68
2023-07-22T15:36:16.110Z,25.45
2023-07-22T15:41:39.198Z,25.28
2023-07-22T15:46:41.417Z,25.19
2023-07-22T15:51:56.965Z,25.08
2023-07-22T15:57:19.643Z,25.03
2023-07-22T16:02:45.104Z,25.00
2023-07-22T16:07:52.670Z,24.99
2023-07-22T16:12:58.194Z,24.95
2023-07-22T16:18:21.023Z,24.83
2023-07-22T16:23:58.867Z,24.79
2023-07-22T16:29:31.758Z,24.69
2023-07-22T16:34:57.341Z,24.37
2023-07-22T16:40:11.647Z,24.14
2023-07-22T16:45:16.375Z,23.96
2023-07-22T16:50:24.747Z,23.84
2023-07-22T16:55:41.693Z,23.74
2023-07-22T17:00:49.221Z,23.77
2023-07-22T17:05:57.611Z,23.87
2023-07-22T17:11:09.016Z,23.96
2023-07-22T17:16:14.598Z,24.01
2023-07-22T17:21:19.863Z,24.05
2023-07-22T17:26:25.345Z,24.27
2023-07-22T17:31:27.966Z,25.17
2023-07-22T17:36:33.374Z,25.70
2023-07-22T17:41:42.728Z,25.85
2023-07-22T17:46:50.283Z,25.64
2023-07-22T17:51:55.828Z,25.01
2023-07-22T17:56:58.609Z,24.41
2023-07-22T18:02:01.883Z,23.92
2023-07-22T18:07:13.356Z,23.50
2023-07-22T18:12:27.033Z,23.07
2023-07-22T18:18:11.396Z,22.62
2023-07-22T18:23:16.886Z,22.18
2023-07-22T18:28:29.379Z,21.79
2023-07-22T18:34:10.178Z,21.47
2023-07-22T18:39:25.350Z,21.14
2023-07-22T18:44:56.508Z,20.88
2023-07-22T18:49:59.342Z,20.58
2023-07-22T18:55:01.878Z,20.31
2023-07-22T19:00:05.333Z,20.10
2023-07-22T19:05:08.246Z,19.90
2023-07-22T19:10:11.676Z,19.70
2023-07-22T19:15:13.964Z,19.50
2023-07-22T19:20:25.754Z,19.31
2023-07-22T19:25:40.279Z,19.09
2023-07-22T19:30:42.715Z,18.90
2023-07-22T19:36:15.439Z,18.70
2023-07-22T19:41:17.934Z,18.52
2023-07-22T19:46:20.460Z,18.35
2023-07-22T19:51:40.018Z,18.18
2023-07-22T19:56:48.531Z,18.02
2023-07-22T20:01:53.720Z,17.87
2023-07-22T20:06:56.288Z,17.70
2023-07-22T20:12:31.075Z,17.61
2023-07-22T20:18:19.612Z,17.90
2023-07-22T20:23:37.077Z,18.03
2023-07-22T20:28:48.529Z,18.09
2023-07-22T20:33:53.771Z,18.11
2023-07-22T20:39:01.893Z,18.11
2023-07-22T20:44:08.335Z,18.10
2023-07-22T20:49:13.128Z,18.07
2023-07-22T20:54:34.598Z,18.01
2023-07-22T20:59:58.226Z,17.97
2023-07-22T21:05:17.042Z,17.91
2023-07-22T21:10:30.111Z,17.84
2023-07-22T21:15:42.741Z,17.75
2023-07-22T21:20:44.859Z,17.70
2023-07-22T21:25:57.293Z,17.63
2023-07-22T21:31:56.695Z,17.52
2023-07-22T21:37:09.788Z,17.45
2023-07-22T21:42:17.979Z,17.40
2023-07-22T21:47:40.686Z,17.35
2023-07-22T21:52:45.991Z,17.27
2023-07-22T21:58:09.319Z,17.19
2023-07-22T22:03:34.539Z,17.11
2023-07-22T22:08:47.400Z,17.05
2023-07-22T22:13:52.095Z,16.98
2023-07-22T22:19:49.350Z,16.95
2023-07-22T22:25:18.506Z,16.92
2023-07-22T22:30:26.181Z,16.87
2023-07-22T22:36:39.630Z,16.78
2023-07-22T22:43:15.402Z,16.70
2023-07-22T22:48:54.029Z,16.68
2023-07-22T22:54:20.166Z,16.63
2023-07-22T22:59:28.299Z,16.59
2023-07-22T23:04:47.086Z,16.55
2023-07-22T23:09:52.883Z,16.48
2023-07-22T23:15:07.652Z,16.42
2023-07-22T23:21:08.350Z,16.36
2023-07-22T23:26:30.280Z,16.31
2023-07-22T23:32:37.878Z,16.24
2023-07-22T23:37:58.896Z,16.21
2023-07-22T23:43:29.918Z,16.16
2023-07-22T23:49:07.998Z,16.15
2023-07-22T23:54:21.735Z,16.12
2023-07-22T23:59:59.101Z,16.05
